Time;durP1;ratioP1;P1;durP2;ratioP2;P2;SDS_P1;SDS_P2;PMS_P1;PMS_P2;Temp;Humidity;BMP_temperature;BMP_pressure;BME280_temperature;BME280_humidity;BME280_pressure;Samples;Min_cycle;Max_cycle;Signal;HPM_P1;HPM_P2
2021/11/20 00:02:27;;;;;;;963.13;883.63;;;21.40;99.90;;;;;;5073012;28;20191;-68
2021/11/20 00:04:55;;;;;;;931.47;862.03;;;21.20;99.90;;;;;;5072825;28;20186;-70
2021/11/20 00:07:24;;;;;;;951.07;881.97;;;21.20;99.90;;;;;;5071115;28;20562;-70
2021/11/20 00:09:51;;;;;;;946.17;873.60;;;21.20;99.90;;;;;;5073040;28;20265;-69
2021/11/20 00:12:31;;;;;;;937.63;860.17;;;21.30;99.90;;;;;;5072193;28;20214;-69
2021/11/20 00:14:59;;;;;;;969.00;888.47;;;21.30;99.90;;;;;;5073473;28;20280;-69
2021/11/20 00:17:27;;;;;;;954.30;874.03;;;21.50;99.90;;;;;;5072150;28;20221;-69
2021/11/20 00:19:54;;;;;;;948.43;867.93;;;21.40;99.90;;;;;;5072678;28;20202;-68
2021/11/20 00:22:29;;;;;;;955.10;877.60;;;21.50;99.90;;;;;;5072960;28;20275;-69
2021/11/20 00:25:06;;;;;;;960.30;884.20;;;21.60;99.90;;;;;;5073008;28;20189;-70
2021/11/20 00:27:37;;;;;;;937.27;862.20;;;21.60;99.90;;;;;;5071442;28;20183;-70
2021/11/20 00:30:22;;;;;;;951.53;874.43;;;21.80;99.90;;;;;;5065252;28;20252;-69
2021/11/20 00:32:53;;;;;;;967.77;894.67;;;21.90;99.90;;;;;;5072404;28;20244;-70
2021/11/20 00:35:26;;;;;;;943.70;872.80;;;21.80;99.90;;;;;;5072137;28;20269;-70
2021/11/20 00:37:53;;;;;;;974.43;898.33;;;21.80;99.90;;;;;;5070235;28;20210;-69
2021/11/20 00:40:39;;;;;;;973.30;896.27;;;22.00;99.90;;;;;;5070300;28;20637;-69
2021/11/20 00:43:07;;;;;;;967.40;888.77;;;21.90;99.90;;;;;;5066203;28;20207;-69
2021/11/20 00:45:35;;;;;;;956.67;877.13;;;21.70;99.90;;;;;;5070616;28;20193;-70
2021/11/20 00:48:05;;;;;;;969.00;892.53;;;21.80;99.90;;;;;;5071874;28;20617;-70
2021/11/20 00:50:34;;;;;;;967.53;889.20;;;21.70;99.90;;;;;;5068512;28;20611;-69
2021/11/20 00:53:02;;;;;;;959.07;882.30;;;21.70;99.90;;;;;;5069041;28;20188;-70
2021/11/20 00:55:30;;;;;;;946.83;868.67;;;21.50;99.90;;;;;;5069882;28;20753;-69
2021/11/20 00:57:59;;;;;;;945.43;866.40;;;21.40;99.90;;;;;;5070609;28;20175;-68
2021/11/20 01:00:32;;;;;;;953.10;873.03;;;21.40;99.90;;;;;;5070324;28;20221;-70
2021/11/20 01:03:00;;;;;;;946.93;868.93;;;21.40;99.90;;;;;;5069363;28;20171;-70
2021/11/20 01:05:27;;;;;;;935.27;858.23;;;21.50;99.90;;;;;;5070704;28;20191;-70
2021/11/20 01:07:55;;;;;;;940.93;867.43;;;21.40;99.90;;;;;;5066414;28;20641;-69
2021/11/20 01:10:27;;;;;;;921.03;850.10;;;21.40;99.90;;;;;;5068558;28;20546;-70
2021/11/20 01:12:54;;;;;;;926.37;856.07;;;21.50;99.90;;;;;;5067072;28;20551;-69
2021/11/20 01:15:32;;;;;;;944.13;872.00;;;21.50;99.90;;;;;;5071122;28;20253;-70
2021/11/20 01:18:00;;;;;;;920.43;853.90;;;21.60;99.90;;;;;;5071625;28;20673;-71
2021/11/20 01:20:27;;;;;;;933.70;866.43;;;21.40;99.90;;;;;;5070746;28;20183;-69
2021/11/20 01:22:55;;;;;;;935.43;864.67;;;21.50;99.90;;;;;;5071684;28;20191;-69
2021/11/20 01:25:22;;;;;;;918.53;851.50;;;21.30;99.90;;;;;;5071653;28;20577;-70
2021/11/20 01:27:50;;;;;;;916.77;849.57;;;21.10;99.90;;;;;;5071901;28;20194;-68
2021/11/20 01:30:19;;;;;;;929.90;862.13;;;21.00;99.90;;;;;;5071670;28;20664;-70
2021/11/20 01:32:47;;;;;;;917.50;851.30;;;21.10;99.90;;;;;;5071730;28;20190;-71
2021/11/20 01:35:14;;;;;;;923.27;855.17;;;21.30;99.90;;;;;;5071697;28;21599;-72
2021/11/20 01:37:42;;;;;;;909.73;840.97;;;21.20;99.90;;;;;;5071699;28;20570;-68
2021/11/20 01:40:13;;;;;;;911.03;841.93;;;21.30;99.90;;;;;;5071854;28;20195;-71
2021/11/20 01:42:41;;;;;;;929.93;862.33;;;21.30;99.90;;;;;;5071819;28;20172;-70
2021/11/20 01:45:14;;;;;;;928.93;859.17;;;21.20;99.90;;;;;;5071662;28;20171;-70
2021/11/20 01:47:56;;;;;;;908.80;845.37;;;21.20;99.90;;;;;;5070552;28;20206;-70
2021/11/20 01:50:32;;;;;;;895.63;835.17;;;21.50;99.90;;;;;;5068164;28;20179;-70
2021/11/20 01:53:26;;;;;;;921.07;852.97;;;21.80;99.90;;;;;;5069873;28;20642;-70
2021/11/20 01:56:06;;;;;;;926.67;862.27;;;21.90;99.90;;;;;;5068612;28;20563;-69
2021/11/20 01:58:42;;;;;;;933.30;870.03;;;22.00;99.90;;;;;;5067740;28;20171;-69
2021/11/20 02:01:36;;;;;;;942.87;875.07;;;21.90;99.90;;;;;;5071198;28;20265;-67
2021/11/20 02:04:09;;;;;;;926.10;856.87;;;21.80;99.90;;;;;;5069544;28;20171;-68
2021/11/20 02:06:49;;;;;;;955.63;882.47;;;21.50;99.90;;;;;;5071034;28;20179;-68
2021/11/20 02:09:30;;;;;;;914.40;849.97;;;21.40;99.90;;;;;;5070507;28;20175;-67
2021/11/20 02:12:21;;;;;;;898.17;835.07;;;21.40;99.90;;;;;;5070337;28;20682;-69
2021/11/20 02:14:50;;;;;;;922.33;856.47;;;21.40;99.90;;;;;;5065905;28;20235;-68
2021/11/20 02:17:25;;;;;;;914.00;848.13;;;21.10;99.90;;;;;;5069638;28;20190;-68
2021/11/20 02:19:59;;;;;;;895.57;830.80;;;20.90;99.90;;;;;;5068790;28;20185;-68
2021/11/20 02:22:39;;;;;;;884.20;823.53;;;20.80;99.90;;;;;;5070972;28;20187;-68
2021/11/20 02:25:05;;;;;;;895.43;833.60;;;20.50;99.90;;;;;;5071371;28;20198;-67
2021/11/20 02:27:36;;;;;;;876.90;816.70;;;20.50;99.90;;;;;;5071245;28;20660;-68
2021/11/20 02:30:40;;;;;;;896.30;831.63;;;20.50;99.90;;;;;;5066641;28;20179;-70
2021/11/20 02:33:21;;;;;;;902.33;834.63;;;20.50;99.90;;;;;;5070848;28;20186;-69
2021/11/20 02:35:53;;;;;;;911.20;833.43;;;20.60;99.90;;;;;;5073747;28;20174;-67
2021/11/20 02:38:27;;;;;;;900.37;826.00;;;20.50;99.90;;;;;;5074467;28;20197;-69
2021/11/20 02:40:55;;;;;;;913.23;836.47;;;20.40;99.90;;;;;;5074689;28;20662;-68
2021/11/20 02:43:25;;;;;;;895.53;822.43;;;20.30;99.90;;;;;;5074934;28;20583;-69
2021/11/20 02:45:58;;;;;;;910.37;837.30;;;20.20;99.90;;;;;;5074431;28;20216;-69
2021/11/20 02:48:26;;;;;;;896.70;826.63;;;20.30;99.90;;;;;;5074665;28;20179;-66
2021/11/20 02:50:57;;;;;;;886.93;818.13;;;20.20;99.90;;;;;;5075117;28;20638;-71
2021/11/20 02:53:54;;;;;;;881.67;809.97;;;20.30;99.90;;;;;;5075008;28;20206;-68
2021/11/20 02:56:25;;;;;;;885.40;812.87;;;20.20;99.90;;;;;;5073663;28;20683;-67
2021/11/20 02:58:53;;;;;;;871.93;798.67;;;20.00;99.90;;;;;;5074827;28;20176;-68
2021/11/20 03:01:27;;;;;;;886.03;815.40;;;20.10;99.90;;;;;;5073785;28;20236;-68
2021/11/20 03:03:56;;;;;;;880.13;813.60;;;20.20;99.90;;;;;;5073858;28;20181;-68
2021/11/20 03:06:23;;;;;;;897.37;824.77;;;20.20;99.90;;;;;;5074428;28;20473;-69
2021/11/20 03:08:50;;;;;;;894.50;824.57;;;20.20;99.90;;;;;;5073228;28;20529;-70
2021/11/20 03:11:19;;;;;;;875.50;807.90;;;20.20;99.90;;;;;;5074028;28;20190;-70
2021/11/20 03:13:51;;;;;;;889.20;818.30;;;20.10;99.90;;;;;;5074338;28;20876;-67
2021/11/20 03:16:18;;;;;;;882.43;812.23;;;20.10;99.90;;;;;;5073824;28;20187;-68
2021/11/20 03:18:46;;;;;;;886.90;814.83;;;20.20;99.90;;;;;;5072438;28;20180;-67
2021/11/20 03:21:16;;;;;;;864.70;804.73;;;20.30;99.90;;;;;;5074790;28;20254;-69
2021/11/20 03:23:49;;;;;;;855.33;796.67;;;20.10;99.90;;;;;;5073444;28;20186;-67
2021/11/20 03:26:16;;;;;;;866.43;802.33;;;20.00;99.90;;;;;;5075398;28;20194;-68
2021/11/20 03:28:44;;;;;;;854.93;795.07;;;20.10;99.90;;;;;;5074317;28;20661;-70
2021/11/20 03:31:11;;;;;;;854.80;795.50;;;20.20;99.90;;;;;;5075064;28;20191;-68
2021/11/20 03:33:39;;;;;;;832.17;776.07;;;20.20;99.90;;;;;;5073770;28;20217;-66
2021/11/20 03:36:07;;;;;;;820.30;765.67;;;20.00;99.90;;;;;;5078161;28;20253;-69
2021/11/20 03:38:34;;;;;;;833.80;777.80;;;19.90;99.90;;;;;;5073803;28;20651;-68
2021/11/20 03:41:03;;;;;;;852.80;795.40;;;19.80;99.90;;;;;;5072002;28;20547;-67
2021/11/20 03:43:30;;;;;;;839.90;782.50;;;19.80;99.90;;;;;;5079429;28;20249;-69
2021/11/20 03:45:57;;;;;;;844.83;787.60;;;19.70;99.90;;;;;;5072172;28;20540;-68
2021/11/20 03:48:25;;;;;;;843.77;786.43;;;19.90;99.90;;;;;;5075450;28;20187;-68
2021/11/20 03:50:53;;;;;;;842.80;786.17;;;19.90;99.90;;;;;;5075838;28;20537;-67
2021/11/20 03:53:21;;;;;;;850.03;791.73;;;19.80;99.90;;;;;;5077649;28;20673;-68
2021/11/20 03:55:49;;;;;;;848.13;786.80;;;19.70;99.90;;;;;;5075946;28;20312;-70
2021/11/20 03:58:20;;;;;;;835.13;774.17;;;19.70;99.90;;;;;;5073553;28;20280;-68
2021/11/20 04:00:59;;;;;;;838.70;780.00;;;19.60;99.90;;;;;;5074634;28;20244;-68
2021/11/20 04:03:27;;;;;;;832.40;774.93;;;19.50;99.90;;;;;;5076647;28;20656;-66
2021/11/20 04:05:58;;;;;;;820.00;764.37;;;19.60;99.90;;;;;;5074350;28;20183;-71
2021/11/20 04:08:26;;;;;;;829.53;771.17;;;19.60;99.90;;;;;;5073893;28;20680;-69
2021/11/20 04:10:57;;;;;;;842.13;783.00;;;19.70;99.90;;;;;;5074614;28;20240;-70
2021/11/20 04:13:24;;;;;;;842.73;781.50;;;19.70;99.90;;;;;;5072718;28;20703;-70
2021/11/20 04:15:52;;;;;;;847.77;782.93;;;19.70;99.90;;;;;;5073256;28;20191;-69
2021/11/20 04:18:20;;;;;;;834.87;772.47;;;19.60;99.90;;;;;;5069631;28;20190;-70
2021/11/20 04:20:48;;;;;;;848.07;786.47;;;19.60;99.90;;;;;;5074931;28;20194;-69
2021/11/20 04:23:15;;;;;;;842.40;779.43;;;19.50;99.90;;;;;;5074027;28;20226;-67
2021/11/20 04:25:43;;;;;;;845.63;780.33;;;19.60;99.90;;;;;;5072634;28;20283;-70
2021/11/20 04:28:11;;;;;;;834.93;774.37;;;19.60;99.90;;;;;;5072575;28;20531;-69
2021/11/20 04:30:39;;;;;;;855.40;790.83;;;19.50;99.90;;;;;;5071648;28;20191;-68
2021/11/20 04:33:07;;;;;;;854.83;786.03;;;19.50;99.90;;;;;;5072794;28;20191;-69
2021/11/20 04:35:35;;;;;;;852.90;782.23;;;19.70;99.90;;;;;;5073474;28;20191;-67
2021/11/20 04:38:04;;;;;;;870.90;800.50;;;19.80;99.90;;;;;;5072465;28;20262;-68
2021/11/20 04:40:32;;;;;;;880.93;810.00;;;19.70;99.90;;;;;;5072731;28;20683;-72
2021/11/20 04:43:00;;;;;;;860.13;789.00;;;19.90;99.90;;;;;;5074582;28;20193;-69
2021/11/20 04:45:32;;;;;;;851.83;782.03;;;19.80;99.90;;;;;;5072807;28;20640;-68
2021/11/20 04:48:02;;;;;;;842.57;780.90;;;19.70;99.90;;;;;;5069213;28;20188;-69
2021/11/20 04:50:30;;;;;;;863.57;799.00;;;19.70;99.90;;;;;;5072481;28;20190;-70
2021/11/20 04:52:57;;;;;;;852.13;788.27;;;19.90;99.90;;;;;;5068105;28;20226;-69
2021/11/20 04:55:26;;;;;;;845.50;784.50;;;19.90;99.90;;;;;;5072800;28;20226;-68
2021/11/20 04:57:53;;;;;;;856.77;794.60;;;19.90;99.90;;;;;;5072490;28;20190;-69
2021/11/20 05:00:25;;;;;;;855.97;791.97;;;19.90;99.90;;;;;;5072985;28;20240;-66
2021/11/20 05:02:54;;;;;;;861.90;797.43;;;19.70;99.90;;;;;;5071604;28;20179;-66
2021/11/20 05:05:21;;;;;;;856.13;794.07;;;19.60;99.90;;;;;;5071765;28;20359;-71
2021/11/20 05:07:49;;;;;;;872.77;807.80;;;19.70;99.90;;;;;;5074856;28;20191;-68
2021/11/20 05:10:17;;;;;;;863.53;796.63;;;19.70;99.90;;;;;;5073862;28;20190;-68
2021/11/20 05:12:45;;;;;;;869.93;801.47;;;19.90;99.90;;;;;;5076696;28;20202;-69
2021/11/20 05:15:14;;;;;;;864.57;800.07;;;20.00;99.90;;;;;;5074330;28;20308;-68
2021/11/20 05:17:42;;;;;;;861.13;796.37;;;20.00;99.90;;;;;;5071803;28;20175;-67
2021/11/20 05:20:10;;;;;;;856.63;791.40;;;20.10;99.90;;;;;;5074748;28;20193;-67
2021/11/20 05:22:37;;;;;;;857.63;791.23;;;19.90;99.90;;;;;;5077736;28;20218;-69
2021/11/20 05:25:06;;;;;;;857.43;791.27;;;19.70;99.90;;;;;;5075396;28;20210;-71
2021/11/20 05:27:34;;;;;;;868.03;798.77;;;19.80;99.90;;;;;;5073751;28;20657;-70
2021/11/20 05:30:13;;;;;;;860.03;793.47;;;19.80;99.90;;;;;;5076744;28;20217;-69
2021/11/20 05:32:41;;;;;;;866.70;798.93;;;19.90;99.90;;;;;;5076658;28;20191;-71
2021/11/20 05:35:08;;;;;;;855.83;794.27;;;19.90;99.90;;;;;;5072106;28;20248;-70
2021/11/20 05:37:35;;;;;;;866.77;798.80;;;19.80;99.90;;;;;;5071868;28;20184;-68
2021/11/20 05:40:05;;;;;;;868.37;798.00;;;19.50;99.90;;;;;;5071968;28;20589;-69
2021/11/20 05:42:32;;;;;;;860.57;790.73;;;19.50;99.90;;;;;;5079319;28;20175;-66
2021/11/20 05:45:00;;;;;;;868.83;798.80;;;19.40;99.90;;;;;;5072191;28;20225;-69
2021/11/20 05:47:27;;;;;;;861.67;791.00;;;19.30;99.90;;;;;;5068472;28;20317;-69
2021/11/20 05:49:55;;;;;;;861.23;789.73;;;19.10;99.90;;;;;;5074521;28;20183;-70
2021/11/20 05:52:22;;;;;;;865.90;791.90;;;19.10;99.90;;;;;;5071057;28;20191;-74
2021/11/20 05:54:49;;;;;;;855.37;783.87;;;19.10;99.90;;;;;;5071698;28;20210;-69
2021/11/20 05:57:19;;;;;;;865.53;794.17;;;19.20;99.90;;;;;;5072591;28;20539;-69
2021/11/20 05:59:46;;;;;;;851.33;780.87;;;19.30;99.90;;;;;;5069397;28;20568;-69
2021/11/20 06:02:13;;;;;;;859.43;789.07;;;19.30;99.90;;;;;;5072973;28;20189;-67
2021/11/20 06:04:41;;;;;;;852.70;783.87;;;19.50;99.90;;;;;;5071607;28;20191;-69
2021/11/20 06:07:11;;;;;;;853.40;782.87;;;19.40;99.90;;;;;;5070261;28;20187;-68
2021/11/20 06:09:40;;;;;;;861.23;792.27;;;19.30;99.90;;;;;;5071059;28;20202;-72
2021/11/20 06:12:10;;;;;;;856.33;785.93;;;19.30;99.90;;;;;;5071389;28;20187;-69
2021/11/20 06:14:38;;;;;;;848.53;777.97;;;19.10;99.90;;;;;;5072859;28;20227;-69
2021/11/20 06:17:05;;;;;;;836.33;768.27;;;19.10;99.90;;;;;;5071164;28;20641;-70
2021/11/20 06:19:32;;;;;;;846.30;775.33;;;19.10;99.90;;;;;;5071631;28;20687;-71
2021/11/20 06:22:00;;;;;;;848.63;777.23;;;19.00;99.90;;;;;;5071698;28;20179;-71
2021/11/20 06:24:28;;;;;;;855.00;785.50;;;19.00;99.90;;;;;;5072851;28;20308;-70
2021/11/20 06:26:55;;;;;;;835.73;767.97;;;19.00;99.90;;;;;;5067927;28;20211;-70
2021/11/20 06:29:24;;;;;;;846.70;775.33;;;18.90;99.90;;;;;;5070863;28;20286;-70
2021/11/20 06:31:51;;;;;;;846.43;775.83;;;19.00;99.90;;;;;;5070224;28;20180;-70
2021/11/20 06:34:20;;;;;;;862.43;790.97;;;18.90;99.90;;;;;;5071117;28;20273;-67
2021/11/20 06:36:48;;;;;;;838.70;768.17;;;18.90;99.90;;;;;;5073399;28;20194;-67
2021/11/20 06:39:16;;;;;;;854.03;780.00;;;18.80;99.90;;;;;;5076514;28;21245;-67
2021/11/20 06:41:44;;;;;;;846.10;772.57;;;18.70;99.90;;;;;;5071704;28;20186;-67
2021/11/20 06:44:11;;;;;;;849.17;776.47;;;18.70;99.90;;;;;;5072468;28;20285;-67
2021/11/20 06:46:39;;;;;;;862.87;785.57;;;18.80;99.90;;;;;;5074613;28;20237;-68
2021/11/20 06:49:06;;;;;;;857.00;782.00;;;18.80;99.90;;;;;;5075011;28;20291;-67
2021/11/20 06:51:33;;;;;;;833.23;761.17;;;18.90;99.90;;;;;;5071402;28;20690;-68
2021/11/20 06:54:01;;;;;;;833.47;760.57;;;18.80;99.90;;;;;;5074985;28;20275;-67
2021/11/20 06:56:30;;;;;;;849.63;770.17;;;18.80;99.90;;;;;;5071351;28;20184;-68
2021/11/20 07:01:37;;;;;;;834.53;759.27;;;18.80;99.90;;;;;;5071344;28;20679;-69
2021/11/20 07:04:13;;;;;;;852.73;781.30;;;18.70;99.90;;;;;;5071967;28;20266;-68
2021/11/20 07:06:53;;;;;;;857.90;781.50;;;18.70;99.90;;;;;;5072466;28;20676;-65
2021/11/20 07:09:21;;;;;;;831.67;761.47;;;18.70;99.90;;;;;;5072470;28;20535;-67
2021/11/20 07:11:49;;;;;;;825.53;752.80;;;18.70;99.90;;;;;;5071051;28;20186;-69
2021/11/20 07:14:17;;;;;;;835.67;761.50;;;18.70;99.90;;;;;;5069497;28;20245;-69
2021/11/20 07:16:44;;;;;;;841.13;766.97;;;18.70;99.90;;;;;;5073076;28;20277;-68
2021/11/20 07:19:12;;;;;;;841.93;766.77;;;18.70;99.90;;;;;;5070284;28;20224;-67
2021/11/20 07:21:40;;;;;;;858.73;780.67;;;18.80;99.90;;;;;;5070988;28;20179;-69
2021/11/20 07:24:11;;;;;;;855.03;776.67;;;18.80;99.90;;;;;;5076690;28;20194;-69
2021/11/20 07:26:39;;;;;;;850.27;774.57;;;18.70;99.90;;;;;;5071414;28;20187;-69
2021/11/20 07:29:07;;;;;;;845.17;769.73;;;18.60;99.90;;;;;;5074327;28;20189;-66
2021/11/20 07:31:34;;;;;;;861.00;786.23;;;18.50;99.90;;;;;;5074199;28;20208;-66
2021/11/20 07:34:01;;;;;;;842.00;768.10;;;18.50;99.90;;;;;;5076131;28;20718;-69
2021/11/20 07:36:35;;;;;;;834.83;760.93;;;18.50;99.90;;;;;;5075511;28;20190;-69
2021/11/20 07:39:06;;;;;;;845.47;769.97;;;18.50;99.90;;;;;;5073712;28;20194;-68
2021/11/20 07:41:34;;;;;;;839.30;763.60;;;18.50;99.90;;;;;;5073251;28;20238;-68
2021/11/20 07:44:01;;;;;;;830.93;754.03;;;18.40;99.90;;;;;;5073823;28;20183;-69
2021/11/20 07:46:28;;;;;;;833.43;754.30;;;18.40;99.90;;;;;;5077924;28;20248;-67
2021/11/20 07:48:57;;;;;;;829.53;749.50;;;18.30;99.90;;;;;;5073778;28;20187;-67
2021/11/20 07:51:25;;;;;;;825.23;744.67;;;18.20;99.90;;;;;;5076408;28;20180;-68
2021/11/20 07:53:52;;;;;;;828.10;746.93;;;18.20;99.90;;;;;;5072869;28;20245;-68
2021/11/20 07:56:21;;;;;;;817.77;739.63;;;18.20;99.90;;;;;;5074325;28;20197;-66
2021/11/20 07:58:50;;;;;;;833.37;752.27;;;18.20;99.90;;;;;;5072988;28;20275;-69
2021/11/20 08:01:17;;;;;;;820.73;743.03;;;18.10;99.90;;;;;;5074846;28;20229;-71
2021/11/20 08:03:45;;;;;;;812.70;734.77;;;18.00;99.90;;;;;;5073532;28;20641;-71
2021/11/20 08:06:12;;;;;;;825.77;745.20;;;18.00;99.90;;;;;;5073950;28;20201;-68
2021/11/20 08:08:40;;;;;;;825.33;740.93;;;18.10;99.90;;;;;;5073676;28;20186;-69
2021/11/20 08:11:07;;;;;;;804.63;726.30;;;18.00;99.90;;;;;;5074589;28;20190;-67
2021/11/20 08:13:35;;;;;;;826.97;747.30;;;18.10;99.90;;;;;;5074143;28;20227;-69
2021/11/20 08:16:04;;;;;;;813.73;735.03;;;18.00;99.90;;;;;;5073496;28;20532;-67
2021/11/20 08:18:31;;;;;;;817.17;737.00;;;18.00;99.90;;;;;;5072143;28;20179;-67
2021/11/20 08:21:02;;;;;;;831.67;747.77;;;18.00;99.90;;;;;;5073919;28;20182;-70
2021/11/20 08:23:31;;;;;;;822.90;739.60;;;18.00;99.90;;;;;;5072175;28;20236;-68
2021/11/20 08:25:59;;;;;;;820.30;735.97;;;17.90;99.90;;;;;;5075394;28;20681;-67
2021/11/20 08:28:26;;;;;;;819.13;740.37;;;17.90;99.90;;;;;;5069680;28;20202;-66
2021/11/20 08:30:54;;;;;;;806.77;732.57;;;17.90;99.90;;;;;;5077851;28;20232;-70
2021/11/20 08:33:22;;;;;;;810.90;736.87;;;18.00;99.90;;;;;;5067781;28;20189;-69
2021/11/20 08:35:50;;;;;;;815.03;738.43;;;17.90;99.90;;;;;;5071804;28;20169;-68
2021/11/20 08:38:18;;;;;;;814.53;735.40;;;17.80;99.90;;;;;;5071376;28;20679;-68
2021/11/20 08:40:49;;;;;;;808.47;734.40;;;17.80;99.90;;;;;;5074617;28;20274;-66
2021/11/20 08:43:18;;;;;;;816.03;743.67;;;17.80;99.90;;;;;;5068145;28;20724;-67
2021/11/20 08:45:52;;;;;;;811.23;739.63;;;17.70;99.90;;;;;;5071350;28;20171;-69
2021/11/20 08:48:21;;;;;;;812.77;740.27;;;17.80;99.90;;;;;;5071954;28;20183;-67
2021/11/20 08:50:53;;;;;;;806.40;734.50;;;17.80;99.90;;;;;;5073272;28;20191;-68
2021/11/20 08:53:21;;;;;;;812.50;737.47;;;17.70;99.90;;;;;;5072500;28;20262;-68
2021/11/20 08:55:49;;;;;;;816.77;739.23;;;17.70;99.90;;;;;;5074368;28;20233;-68
2021/11/20 08:58:17;;;;;;;813.43;739.83;;;17.70;99.90;;;;;;5071898;28;20179;-69
2021/11/20 09:00:52;;;;;;;801.30;727.03;;;17.70;99.90;;;;;;5071808;28;20191;-68
2021/11/20 09:03:29;;;;;;;795.43;719.17;;;17.70;99.90;;;;;;5070582;28;20179;-70
2021/11/20 09:06:14;;;;;;;822.33;746.10;;;17.70;99.90;;;;;;5070025;28;20191;-68
2021/11/20 09:08:58;;;;;;;801.77;727.73;;;17.80;99.90;;;;;;5072744;28;20183;-68
2021/11/20 09:11:34;;;;;;;801.97;725.83;;;17.70;99.90;;;;;;5072258;28;20191;-69
2021/11/20 09:14:04;;;;;;;795.90;718.50;;;17.80;99.90;;;;;;5071250;28;20586;-69
2021/11/20 09:16:34;;;;;;;795.23;718.13;;;17.70;99.90;;;;;;5072303;28;20197;-68
2021/11/20 09:19:01;;;;;;;800.87;722.03;;;17.70;99.90;;;;;;5075861;28;20193;-67
2021/11/20 09:21:29;;;;;;;797.77;716.57;;;17.70;99.90;;;;;;5076113;28;20186;-71
2021/11/20 09:23:59;;;;;;;793.13;714.97;;;17.80;99.90;;;;;;5072265;28;20183;-68
2021/11/20 09:26:28;;;;;;;787.73;708.77;;;17.70;99.90;;;;;;5070705;28;20183;-70
2021/11/20 09:28:57;;;;;;;791.40;717.70;;;17.70;99.90;;;;;;5071397;28;20241;-69
2021/11/20 09:31:27;;;;;;;787.67;713.30;;;17.80;99.90;;;;;;5071559;28;20709;-71
2021/11/20 09:33:56;;;;;;;790.97;715.60;;;17.70;99.90;;;;;;5071808;28;20687;-69
2021/11/20 09:36:25;;;;;;;791.17;715.03;;;17.80;99.90;;;;;;5071863;28;20187;-71
2021/11/20 09:38:53;;;;;;;792.23;717.17;;;17.80;99.90;;;;;;5075230;28;20182;-71
2021/11/20 09:41:25;;;;;;;799.03;728.07;;;17.80;99.90;;;;;;5072175;28;20687;-69
2021/11/20 09:43:59;;;;;;;791.27;718.50;;;17.80;99.90;;;;;;5075355;28;20195;-71
2021/11/20 09:46:31;;;;;;;794.67;720.80;;;17.80;99.90;;;;;;5076028;28;20300;-68
2021/11/20 09:49:26;;;;;;;819.23;749.97;;;17.80;99.90;;;;;;5071538;28;20183;-69
2021/11/20 09:51:54;;;;;;;804.23;736.07;;;17.80;99.90;;;;;;5073385;28;20276;-68
2021/11/20 09:54:35;;;;;;;807.33;734.70;;;17.80;99.90;;;;;;5074040;28;20757;-69
2021/11/20 09:57:12;;;;;;;784.37;717.67;;;17.80;99.90;;;;;;5069365;28;20553;-69
2021/11/20 10:00:04;;;;;;;776.10;707.70;;;17.80;99.90;;;;;;5074039;28;20216;-69
2021/11/20 10:02:48;;;;;;;777.97;708.47;;;17.70;99.90;;;;;;5069498;28;20193;-72
2021/11/20 10:05:21;;;;;;;798.37;722.07;;;17.70;99.90;;;;;;5070895;28;20633;-70
2021/11/20 10:07:52;;;;;;;804.73;728.10;;;17.70;99.90;;;;;;5070203;28;20187;-70
2021/11/20 10:10:25;;;;;;;802.73;725.47;;;17.70;99.90;;;;;;5072094;28;20187;-70
2021/11/20 10:13:12;;;;;;;810.50;730.37;;;17.70;99.90;;;;;;5073093;28;20667;-72
2021/11/20 10:15:59;;;;;;;779.63;700.00;;;17.70;99.90;;;;;;5070861;28;20213;-70
2021/11/20 10:18:48;;;;;;;798.33;718.77;;;17.70;99.90;;;;;;5070837;28;20215;-71
2021/11/20 10:21:32;;;;;;;792.03;712.77;;;17.60;99.90;;;;;;5074739;28;20202;-70
2021/11/20 10:24:32;;;;;;;801.27;722.83;;;17.60;99.90;;;;;;5070292;28;20632;-72
2021/11/20 10:27:11;;;;;;;787.87;713.17;;;17.60;99.90;;;;;;5073486;28;20195;-70
2021/11/20 10:29:55;;;;;;;794.10;720.03;;;17.50;99.90;;;;;;5068189;28;20629;-72
2021/11/20 10:32:40;;;;;;;787.23;711.83;;;17.50;99.90;;;;;;5071211;28;20522;-70
2021/11/20 10:35:22;;;;;;;785.67;711.43;;;17.40;99.90;;;;;;5070290;28;20244;-72
2021/11/20 10:38:03;;;;;;;792.90;718.27;;;17.40;99.90;;;;;;5074089;28;20182;-71
2021/11/20 10:40:44;;;;;;;803.60;728.20;;;17.40;99.90;;;;;;5071713;28;20595;-72
2021/11/20 10:43:17;;;;;;;776.00;703.67;;;17.40;99.90;;;;;;5070653;28;20669;-69
2021/11/20 10:46:10;;;;;;;786.63;714.07;;;17.30;99.90;;;;;;5075426;28;20192;-71
2021/11/20 10:49:12;;;;;;;774.10;702.33;;;17.30;99.90;;;;;;5069306;28;20186;-71
2021/11/20 10:51:42;;;;;;;777.30;704.10;;;17.40;99.90;;;;;;5074888;28;20260;-72
2021/11/20 10:55:04;;;;;;;776.27;703.23;;;17.40;99.90;;;;;;5073686;28;20241;-70
2021/11/20 10:58:09;;;;;;;780.30;694.77;;;17.30;99.90;;;;;;5041357;28;20672;-71
2021/11/20 11:01:07;;;;;;;771.57;693.00;;;17.20;99.90;;;;;;5072489;28;20294;-72
2021/11/20 11:03:46;;;;;;;772.53;688.07;;;17.20;99.90;;;;;;5074541;28;20171;-70
2021/11/20 11:06:49;;;;;;;780.80;699.90;;;17.20;99.90;;;;;;5075157;28;20620;-70
2021/11/20 11:09:33;;;;;;;799.20;712.27;;;17.20;99.90;;;;;;5074792;28;20190;-71
2021/11/20 11:12:21;;;;;;;785.50;700.97;;;17.30;99.90;;;;;;5071726;28;20347;-70
2021/11/20 11:14:53;;;;;;;781.23;697.73;;;17.20;99.90;;;;;;5070670;28;20240;-70
2021/11/20 11:17:56;;;;;;;753.63;670.83;;;17.10;99.90;;;;;;5071042;28;20179;-71
2021/11/20 11:20:58;;;;;;;759.37;677.57;;;17.10;99.90;;;;;;5040923;28;20198;-73
2021/11/20 11:23:55;;;;;;;765.93;679.50;;;17.20;99.90;;;;;;5073695;28;20541;-69
2021/11/20 11:26:28;;;;;;;789.13;680.37;;;17.10;99.90;;;;;;5071064;28;20272;-71
2021/11/20 11:29:14;;;;;;;782.00;700.60;;;17.10;99.90;;;;;;5073804;28;20679;-70
2021/11/20 11:31:44;;;;;;;759.00;675.13;;;17.10;99.90;;;;;;5072004;28;20185;-69
2021/11/20 11:34:43;;;;;;;769.30;685.70;;;17.00;99.90;;;;;;5070900;28;20217;-70
2021/11/20 11:37:23;;;;;;;768.87;688.03;;;17.00;99.90;;;;;;5072587;28;20182;-70
2021/11/20 11:40:24;;;;;;;768.60;686.10;;;17.10;99.90;;;;;;5073801;28;20205;-69
2021/11/20 11:42:58;;;;;;;760.67;681.03;;;17.10;99.90;;;;;;5073152;28;20575;-70
2021/11/20 11:45:54;;;;;;;772.07;688.83;;;17.20;99.90;;;;;;5074079;28;20187;-71
2021/11/20 11:48:44;;;;;;;776.53;694.57;;;17.10;99.90;;;;;;5073385;28;20195;-69
2021/11/20 11:51:24;;;;;;;776.23;695.20;;;17.20;99.90;;;;;;5079199;28;20240;-70
2021/11/20 11:54:10;;;;;;;770.47;689.00;;;17.10;99.90;;;;;;5073374;28;20292;-69
2021/11/20 11:56:45;;;;;;;761.00;678.90;;;17.10;99.90;;;;;;5071094;28;20229;-71
2021/11/20 11:59:36;;;;;;;774.20;699.70;;;17.10;99.90;;;;;;5075349;28;20246;-71
2021/11/20 12:02:42;;;;;;;755.33;684.83;;;17.20;99.90;;;;;;5072721;28;20186;-71
2021/11/20 12:05:33;;;;;;;758.30;688.03;;;17.10;99.90;;;;;;5076266;28;20181;-70
2021/11/20 12:08:35;;;;;;;755.27;684.17;;;17.10;99.90;;;;;;5071869;28;20201;-71
2021/11/20 12:11:02;;;;;;;751.27;679.07;;;17.10;99.90;;;;;;5072818;28;20666;-68
2021/11/20 12:13:34;;;;;;;770.17;690.57;;;17.10;99.90;;;;;;5075107;28;20223;-71
2021/11/20 12:16:07;;;;;;;765.73;689.43;;;17.10;99.90;;;;;;5069911;28;20186;-71
2021/11/20 12:18:56;;;;;;;748.83;673.33;;;17.10;99.90;;;;;;5072222;28;20209;-70
2021/11/20 12:22:16;;;;;;;759.63;682.70;;;17.10;99.90;;;;;;5072605;28;20272;-70
2021/11/20 12:24:54;;;;;;;755.73;680.87;;;17.20;99.90;;;;;;5061183;28;20199;-69
2021/11/20 12:27:48;;;;;;;772.90;696.23;;;17.20;99.90;;;;;;5076146;28;20191;-70
2021/11/20 12:30:51;;;;;;;764.00;688.20;;;17.20;99.90;;;;;;5073371;28;20175;-70
2021/11/20 12:33:47;;;;;;;747.37;672.47;;;17.20;99.90;;;;;;5072937;28;20185;-71
2021/11/20 12:36:38;;;;;;;737.77;661.33;;;17.20;99.90;;;;;;5071405;28;20588;-70
2021/11/20 12:39:27;;;;;;;763.63;685.30;;;17.10;99.90;;;;;;5071096;28;20523;-69
2021/11/20 12:42:11;;;;;;;764.30;684.33;;;17.20;99.90;;;;;;5071727;28;20315;-69
2021/11/20 12:44:56;;;;;;;778.77;696.93;;;17.10;99.90;;;;;;5076553;28;20192;-71